createdAt,value
2022-12-12T07:21:20.992Z,139683.78
2022-12-12T07:26:25.538Z,139180.19
2022-12-12T07:31:29.274Z,139325.50
2022-12-12T07:36:36.911Z,139685.00
2022-12-12T07:41:40.932Z,139680.13
2022-12-12T07:46:44.768Z,139424.53
2022-12-12T07:51:49.880Z,139677.69
2022-12-12T07:56:53.469Z,139680.13
2022-12-12T08:01:57.153Z,139502.75
2022-12-12T08:07:08.135Z,139656.84
2022-12-12T08:12:12.242Z,139665.47
2022-12-12T08:17:15.919Z,139430.63
2022-12-12T08:27:38.796Z,139489.28
2022-12-12T08:32:42.504Z,139625.06
2022-12-12T08:37:47.583Z,139682.56
2022-12-12T08:42:52.592Z,139678.91
2022-12-12T08:47:56.160Z,139650.75
2022-12-12T08:53:01.135Z,139686.22
2022-12-12T08:58:04.883Z,139686.22
2022-12-12T09:03:08.576Z,139654.41
2022-12-12T09:08:14.730Z,139528.44
2022-12-12T09:13:18.540Z,139620.16
2022-12-12T09:18:22.332Z,139634.88
2022-12-12T09:23:28.404Z,139632.38
2022-12-12T09:28:31.972Z,139606.72
2022-12-12T09:33:36.473Z,139576.09
2022-12-12T09:38:41.883Z,139631.16
2022-12-12T09:43:52.786Z,139687.44
2022-12-12T09:49:02.909Z,139666.69
2022-12-12T09:54:08.370Z,139612.84
2022-12-12T09:59:17.952Z,139598.13
2022-12-12T10:04:38.173Z,139639.75
2022-12-12T10:09:53.759Z,139654.41
2022-12-12T10:15:01.752Z,139568.78
2022-12-12T10:20:09.254Z,139562.66
2022-12-12T10:25:22.255Z,139551.69
2022-12-12T10:30:25.966Z,139573.66
2022-12-12T10:35:35.456Z,139547.97
2022-12-12T10:40:52.462Z,139529.66
2022-12-12T10:46:23.712Z,139495.41
2022-12-12T10:51:29.778Z,139550.47
2022-12-12T10:56:34.852Z,139363.44
2022-12-12T11:07:03.931Z,139010.56
2022-12-12T11:12:15.430Z,139572.44
2022-12-12T11:17:23.834Z,139653.19
2022-12-12T11:22:29.125Z,139551.69
2022-12-12T11:27:39.339Z,139616.50
2022-12-12T11:32:47.444Z,139416.00
2022-12-12T11:37:55.165Z,139724.16
2022-12-12T11:43:20.432Z,139707.00
2022-12-12T11:48:39.226Z,139595.69
2022-12-12T11:53:45.940Z,139642.19
2022-12-12T11:58:57.916Z,139600.56
2022-12-12T12:04:16.307Z,139534.53
2022-12-12T12:09:30.098Z,139530.88
2022-12-12T12:14:55.900Z,139539.44
2022-12-12T12:25:48.544Z,139221.75
2022-12-12T12:31:01.807Z,139557.78
2022-12-12T12:36:20.940Z,139550.47
2022-12-12T12:41:37.744Z,139511.28
2022-12-12T12:46:53.022Z,139299.88
2022-12-12T12:52:02.982Z,139544.31
2022-12-12T12:57:11.949Z,139516.19
2022-12-12T13:02:27.457Z,139292.53
2022-12-12T13:07:44.528Z,139242.47
2022-12-12T13:12:53.338Z,139578.59
2022-12-12T13:18:02.288Z,139095.94
2022-12-12T13:23:28.878Z,139557.78
2022-12-12T13:28:37.207Z,139409.84
2022-12-12T13:33:46.561Z,139376.84
2022-12-12T13:38:53.990Z,139600.56
2022-12-12T13:43:59.744Z,139607.94
2022-12-12T13:49:17.328Z,139600.56
2022-12-12T13:54:56.144Z,139622.59
2022-12-12T14:00:20.854Z,139589.59
2022-12-12T14:05:27.814Z,139588.38
2022-12-12T14:10:35.203Z,139560.22
2022-12-12T14:15:41.357Z,139583.47
2022-12-12T14:20:54.922Z,139508.84
2022-12-12T14:25:59.961Z,139562.66
2022-12-12T14:31:09.273Z,139528.44
2022-12-12T14:36:32.700Z,139516.19
2022-12-12T14:41:59.528Z,138969.09
2022-12-12T14:47:08.510Z,139330.44
2022-12-12T14:52:17.945Z,139141.13
2022-12-12T14:57:24.158Z,139594.47
2022-12-12T15:02:34.788Z,139568.78
2022-12-12T15:07:41.003Z,139592.03
2022-12-12T15:12:45.450Z,139071.53
2022-12-12T15:17:51.764Z,139393.97
2022-12-12T15:22:58.580Z,139609.16
2022-12-12T15:28:03.496Z,139541.88
2022-12-12T15:33:17.302Z,139616.50
2022-12-12T15:38:22.953Z,139570.00
2022-12-12T15:43:28.781Z,139551.69
2022-12-12T15:48:32.428Z,139497.88
2022-12-12T15:53:40.554Z,139555.34
2022-12-12T15:58:49.434Z,139606.72
2022-12-12T16:03:57.529Z,139543.09
2022-12-12T16:09:09.044Z,139611.63
2022-12-12T16:14:33.945Z,139603.03
2022-12-12T16:19:54.979Z,139473.41
2022-12-12T16:25:14.533Z,139539.44
2022-12-12T16:30:18.557Z,139599.34
2022-12-12T16:35:25.858Z,139614.06
2022-12-12T16:40:30.910Z,139595.69
2022-12-12T16:45:34.356Z,139622.59
2022-12-12T16:50:37.964Z,139643.41
2022-12-12T16:55:46.463Z,139626.28
2022-12-12T17:00:53.815Z,139663.00
2022-12-12T17:05:57.585Z,139494.16
2022-12-12T17:11:10.509Z,139651.97
2022-12-12T17:16:15.327Z,139640.97
2022-12-12T17:21:19.260Z,139615.28
2022-12-12T17:26:24.882Z,139606.72
2022-12-12T17:31:32.375Z,139555.34
2022-12-12T17:36:36.574Z,139604.25
2022-12-12T17:46:59.570Z,139698.44
2022-12-12T17:52:03.286Z,139605.47
2022-12-12T17:57:10.844Z,139677.69
2022-12-12T18:02:14.955Z,139561.44
2022-12-12T18:07:19.135Z,139605.47
2022-12-12T18:12:24.405Z,139461.19
2022-12-12T18:17:28.604Z,139285.22
2022-12-12T18:22:32.231Z,139508.84
2022-12-12T18:27:38.127Z,139463.63
2022-12-12T18:32:44.182Z,139453.88
2022-12-12T18:37:50.382Z,139416.00
2022-12-12T18:42:56.260Z,139014.22
2022-12-12T18:48:00.033Z,139306.00
2022-12-12T18:53:03.861Z,139233.94
2022-12-12T18:58:08.936Z,139302.31
2022-12-12T19:03:12.535Z,139274.22
2022-12-12T19:08:19.700Z,139237.59
2022-12-12T19:13:25.035Z,139178.97
2022-12-12T19:18:28.777Z,138983.72
2022-12-12T19:23:33.848Z,139038.63
2022-12-12T19:28:44.131Z,139253.44
2022-12-12T19:33:48.623Z,139174.09
2022-12-12T19:38:53.073Z,139104.47
2022-12-12T19:44:01.529Z,139222.97
2022-12-12T19:49:08.493Z,139034.97
2022-12-12T19:54:17.853Z,139056.91
2022-12-12T19:59:24.459Z,139125.25
2022-12-12T20:04:30.198Z,139006.91
2022-12-12T20:09:37.187Z,139042.22
2022-12-12T20:14:51.001Z,139248.56
2022-12-12T20:19:56.580Z,139381.72
2022-12-12T20:25:02.987Z,139351.19
2022-12-12T20:30:14.038Z,139492.94
2022-12-12T20:35:18.144Z,139511.28
2022-12-12T20:40:22.605Z,139472.19
2022-12-12T20:45:27.909Z,139543.09
2022-12-12T20:50:31.892Z,139574.88
2022-12-12T20:55:36.780Z,139633.66
2022-12-12T21:00:54.920Z,139440.44
2022-12-12T21:06:12.681Z,139658.09
2022-12-12T21:11:19.955Z,139429.41
2022-12-12T21:16:37.983Z,139692.38
2022-12-12T21:21:47.319Z,139677.69
2022-12-12T21:26:54.578Z,139475.84
2022-12-12T21:32:00.173Z,139683.78
2022-12-12T21:37:04.318Z,139444.09
2022-12-12T21:42:09.222Z,139386.66
2022-12-12T21:47:16.729Z,139374.41
2022-12-12T21:52:21.934Z,139538.19
2022-12-12T21:57:26.007Z,139742.47
2022-12-12T22:02:32.454Z,139530.88
2022-12-12T22:07:36.888Z,139715.56
2022-12-12T22:12:40.550Z,139733.94
2022-12-12T22:17:45.796Z,139705.78
2022-12-12T22:22:49.874Z,139715.56
2022-12-12T22:27:53.446Z,139735.16
2022-12-12T22:32:58.363Z,139726.59
